sensor_id;sensor_type;location;lat;lon;timestamp;pressure;altitude;pressure_sealevel;temperature;humidity
70206;BME280;57593;55.896;37.396;2023-02-12T00:00:07;97990.53;;;-0.43;100.00
70206;BME280;57593;55.896;37.396;2023-02-12T00:00:45;98006.28;;;-0.39;100.00
70206;BME280;57593;55.896;37.396;2023-02-12T00:01:17;98007.66;;;-0.56;100.00
70206;BME280;57593;55.896;37.396;2023-02-12T00:01:48;98044.59;;;-0.50;100.00
70206;BME280;57593;55.896;37.396;2023-02-12T00:02:18;97998.13;;;-0.60;100.00
70206;BME280;57593;55.896;37.396;2023-02-12T00:02:49;98030.22;;;-0.70;100.00
70206;BME280;57593;55.896;37.396;2023-02-12T00:03:20;98010.06;;;-0.73;100.00
70206;BME280;57593;55.896;37.396;2023-02-12T00:03:50;98016.13;;;-0.64;100.00
70206;BME280;57593;55.896;37.396;2023-02-12T00:04:21;98013.59;;;-0.69;100.00
70206;BME280;57593;55.896;37.396;2023-02-12T00:04:52;98028.41;;;-0.69;100.00
70206;BME280;57593;55.896;37.396;2023-02-12T00:05:22;98035.78;;;-0.77;100.00
70206;BME280;57593;55.896;37.396;2023-02-12T00:05:53;98018.19;;;-0.80;100.00
70206;BME280;57593;55.896;37.396;2023-02-12T00:06:23;98019.00;;;-0.79;100.00
70206;BME280;57593;55.896;37.396;2023-02-12T00:06:54;98012.66;;;-0.87;100.00
70206;BME280;57593;55.896;37.396;2023-02-12T00:07:28;98018.78;;;-0.83;100.00
70206;BME280;57593;55.896;37.396;2023-02-12T00:07:59;98022.59;;;-1.08;100.00
70206;BME280;57593;55.896;37.396;2023-02-12T00:08:30;98021.53;;;-1.07;100.00
70206;BME280;57593;55.896;37.396;2023-02-12T00:09:01;97993.81;;;-0.93;100.00
70206;BME280;57593;55.896;37.396;2023-02-12T00:09:31;98028.66;;;-0.85;100.00
70206;BME280;57593;55.896;37.396;2023-02-12T00:10:03;98002.91;;;-0.95;100.00
70206;BME280;57593;55.896;37.396;2023-02-12T00:10:33;98031.38;;;-0.90;100.00
70206;BME280;57593;55.896;37.396;2023-02-12T00:11:13;98030.28;;;-0.89;100.00
70206;BME280;57593;55.896;37.396;2023-02-12T00:11:44;98032.97;;;-0.94;100.00
70206;BME280;57593;55.896;37.396;2023-02-12T00:12:15;98036.84;;;-0.78;100.00
70206;BME280;57593;55.896;37.396;2023-02-12T00:12:46;98061.59;;;-0.85;100.00
70206;BME280;57593;55.896;37.396;2023-02-12T00:13:16;98041.22;;;-0.92;100.00
70206;BME280;57593;55.896;37.396;2023-02-12T00:13:47;98043.44;;;-0.99;100.00
70206;BME280;57593;55.896;37.396;2023-02-12T00:14:18;98046.41;;;-0.92;100.00
70206;BME280;57593;55.896;37.396;2023-02-12T00:14:48;98058.31;;;-1.05;100.00
70206;BME280;57593;55.896;37.396;2023-02-12T00:15:20;98062.41;;;-1.18;100.00
70206;BME280;57593;55.896;37.396;2023-02-12T00:15:50;98009.50;;;-1.31;100.00
70206;BME280;57593;55.896;37.396;2023-02-12T00:16:23;98054.91;;;-1.19;100.00
70206;BME280;57593;55.896;37.396;2023-02-12T00:16:54;98056.47;;;-1.18;100.00
70206;BME280;57593;55.896;37.396;2023-02-12T00:17:25;98054.16;;;-1.20;100.00
70206;BME280;57593;55.896;37.396;2023-02-12T00:17:55;98055.00;;;-1.24;100.00
70206;BME280;57593;55.896;37.396;2023-02-12T00:18:26;98031.47;;;-1.28;100.00
70206;BME280;57593;55.896;37.396;2023-02-12T00:18:57;98075.88;;;-1.35;100.00
70206;BME280;57593;55.896;37.396;2023-02-12T00:19:29;98061.75;;;-1.42;100.00
70206;BME280;57593;55.896;37.396;2023-02-12T00:19:59;98051.75;;;-1.49;100.00
70206;BME280;57593;55.896;37.396;2023-02-12T00:20:30;98061.19;;;-1.39;100.00
70206;BME280;57593;55.896;37.396;2023-02-12T00:21:01;98069.22;;;-1.41;100.00
70206;BME280;57593;55.896;37.396;2023-02-12T00:21:31;98078.28;;;-1.38;100.00
70206;BME280;57593;55.896;37.396;2023-02-12T00:22:02;98070.34;;;-1.47;100.00
70206;BME280;57593;55.896;37.396;2023-02-12T00:22:33;98074.22;;;-1.45;100.00
70206;BME280;57593;55.896;37.396;2023-02-12T00:23:04;98080.63;;;-1.42;100.00
70206;BME280;57593;55.896;37.396;2023-02-12T00:23:36;98075.78;;;-1.30;100.00
70206;BME280;57593;55.896;37.396;2023-02-12T00:24:06;98074.03;;;-1.34;100.00
70206;BME280;57593;55.896;37.396;2023-02-12T00:24:37;98077.75;;;-1.40;100.00
70206;BME280;57593;55.896;37.396;2023-02-12T00:25:08;98081.97;;;-1.45;100.00
70206;BME280;57593;55.896;37.396;2023-02-12T00:25:41;98072.38;;;-1.44;100.00
70206;BME280;57593;55.896;37.396;2023-02-12T00:26:14;98097.84;;;-1.51;100.00
70206;BME280;57593;55.896;37.396;2023-02-12T00:26:50;98095.81;;;-1.54;100.00
70206;BME280;57593;55.896;37.396;2023-02-12T00:27:20;98079.44;;;-1.50;100.00
70206;BME280;57593;55.896;37.396;2023-02-12T00:27:51;98084.34;;;-1.48;100.00
70206;BME280;57593;55.896;37.396;2023-02-12T00:28:22;98082.31;;;-1.51;100.00
70206;BME280;57593;55.896;37.396;2023-02-12T00:28:53;98085.28;;;-1.58;100.00
70206;BME280;57593;55.896;37.396;2023-02-12T00:29:24;98095.53;;;-1.53;100.00
70206;BME280;57593;55.896;37.396;2023-02-12T00:29:54;98096.53;;;-1.49;100.00
70206;BME280;57593;55.896;37.396;2023-02-12T00:30:25;98082.47;;;-1.42;100.00
70206;BME280;57593;55.896;37.396;2023-02-12T00:31:04;98087.16;;;-1.45;100.00
70206;BME280;57593;55.896;37.396;2023-02-12T00:31:34;98090.94;;;-1.56;100.00
70206;BME280;57593;55.896;37.396;2023-02-12T00:32:05;98104.78;;;-1.47;100.00
70206;BME280;57593;55.896;37.396;2023-02-12T00:32:36;98099.41;;;-1.50;100.00
70206;BME280;57593;55.896;37.396;2023-02-12T00:33:07;98110.03;;;-1.52;100.00
70206;BME280;57593;55.896;37.396;2023-02-12T00:33:38;98106.25;;;-1.59;100.00
70206;BME280;57593;55.896;37.396;2023-02-12T00:34:10;98106.34;;;-1.65;100.00
70206;BME280;57593;55.896;37.396;2023-02-12T00:34:40;98118.16;;;-1.77;100.00
70206;BME280;57593;55.896;37.396;2023-02-12T00:35:12;98113.47;;;-1.75;100.00
70206;BME280;57593;55.896;37.396;2023-02-12T00:35:43;98114.38;;;-1.66;100.00
70206;BME280;57593;55.896;37.396;2023-02-12T00:36:17;98118.28;;;-1.69;100.00
70206;BME280;57593;55.896;37.396;2023-02-12T00:36:48;98108.03;;;-1.74;100.00
70206;BME280;57593;55.896;37.396;2023-02-12T00:37:19;98126.56;;;-1.67;100.00
70206;BME280;57593;55.896;37.396;2023-02-12T00:37:49;98132.06;;;-1.73;100.00
70206;BME280;57593;55.896;37.396;2023-02-12T00:38:20;98114.03;;;-1.78;100.00
70206;BME280;57593;55.896;37.396;2023-02-12T00:38:53;98141.13;;;-1.95;100.00
70206;BME280;57593;55.896;37.396;2023-02-12T00:39:24;98124.72;;;-1.85;100.00
70206;BME280;57593;55.896;37.396;2023-02-12T00:39:54;98149.97;;;-1.96;100.00
70206;BME280;57593;55.896;37.396;2023-02-12T00:40:25;98132.69;;;-1.82;100.00
70206;BME280;57593;55.896;37.396;2023-02-12T00:40:56;98140.19;;;-1.80;100.00
70206;BME280;57593;55.896;37.396;2023-02-12T00:41:27;98104.59;;;-1.88;100.00
70206;BME280;57593;55.896;37.396;2023-02-12T00:41:58;98159.31;;;-2.00;100.00
70206;BME280;57593;55.896;37.396;2023-02-12T00:42:29;98118.03;;;-2.10;100.00
70206;BME280;57593;55.896;37.396;2023-02-12T00:42:59;98131.69;;;-2.05;100.00
70206;BME280;57593;55.896;37.396;2023-02-12T00:43:30;98146.16;;;-2.04;100.00
70206;BME280;57593;55.896;37.396;2023-02-12T00:44:01;98125.28;;;-2.12;100.00
70206;BME280;57593;55.896;37.396;2023-02-12T00:44:31;98133.91;;;-1.98;100.00
70206;BME280;57593;55.896;37.396;2023-02-12T00:45:02;98116.88;;;-1.99;100.00
70206;BME280;57593;55.896;37.396;2023-02-12T00:45:34;98132.50;;;-2.09;100.00
70206;BME280;57593;55.896;37.396;2023-02-12T00:46:07;98137.53;;;-2.18;100.00
70206;BME280;57593;55.896;37.396;2023-02-12T00:46:38;98150.41;;;-2.13;100.00
70206;BME280;57593;55.896;37.396;2023-02-12T00:47:09;98140.66;;;-1.97;100.00
70206;BME280;57593;55.896;37.396;2023-02-12T00:47:39;98134.47;;;-2.01;100.00
70206;BME280;57593;55.896;37.396;2023-02-12T00:48:10;98142.75;;;-1.99;100.00
70206;BME280;57593;55.896;37.396;2023-02-12T00:48:40;98141.00;;;-2.04;100.00
70206;BME280;57593;55.896;37.396;2023-02-12T00:49:11;98148.50;;;-2.07;100.00
70206;BME280;57593;55.896;37.396;2023-02-12T00:49:42;98148.19;;;-2.01;100.00
70206;BME280;57593;55.896;37.396;2023-02-12T00:50:13;98129.91;;;-2.09;100.00
70206;BME280;57593;55.896;37.396;2023-02-12T00:50:45;98171.16;;;-2.18;100.00
70206;BME280;57593;55.896;37.396;2023-02-12T00:51:16;98143.84;;;-2.05;100.00
70206;BME280;57593;55.896;37.396;2023-02-12T00:51:47;98157.81;;;-2.06;100.00
70206;BME280;57593;55.896;37.396;2023-02-12T00:52:20;98143.06;;;-2.06;100.00
70206;BME280;57593;55.896;37.396;2023-02-12T00:52:50;98150.44;;;-1.94;100.00
70206;BME280;57593;55.896;37.396;2023-02-12T00:53:21;98145.75;;;-1.92;100.00
70206;BME280;57593;55.896;37.396;2023-02-12T00:53:51;98139.66;;;-2.01;100.00
70206;BME280;57593;55.896;37.396;2023-02-12T00:54:22;98170.66;;;-1.96;100.00
70206;BME280;57593;55.896;37.396;2023-02-12T00:54:53;98167.13;;;-2.05;100.00
70206;BME280;57593;55.896;37.396;2023-02-12T00:55:24;98149.06;;;-2.10;100.00
70206;BME280;57593;55.896;37.396;2023-02-12T00:55:54;98157.22;;;-1.98;100.00
70206;BME280;57593;55.896;37.396;2023-02-12T00:56:25;98166.25;;;-1.95;100.00
70206;BME280;57593;55.896;37.396;2023-02-12T00:56:56;98164.09;;;-1.88;100.00
70206;BME280;57593;55.896;37.396;2023-02-12T00:57:27;98184.09;;;-1.94;100.00
70206;BME280;57593;55.896;37.396;2023-02-12T00:58:00;98150.56;;;-2.04;100.00
70206;BME280;57593;55.896;37.396;2023-02-12T00:58:32;98169.31;;;-1.93;100.00
70206;BME280;57593;55.896;37.396;2023-02-12T00:59:03;98170.97;;;-1.78;100.00
70206;BME280;57593;55.896;37.396;2023-02-12T00:59:34;98176.06;;;-1.73;100.00
70206;BME280;57593;55.896;37.396;2023-02-12T01:00:07;98170.75;;;-1.82;100.00
70206;BME280;57593;55.896;37.396;2023-02-12T01:00:38;98169.38;;;-1.74;100.00
70206;BME280;57593;55.896;37.396;2023-02-12T01:01:09;98195.09;;;-1.83;100.00
70206;BME280;57593;55.896;37.396;2023-02-12T01:01:40;98186.06;;;-1.86;100.00
70206;BME280;57593;55.896;37.396;2023-02-12T01:02:10;98205.97;;;-2.10;100.00
70206;BME280;57593;55.896;37.396;2023-02-12T01:02:41;98187.06;;;-2.06;100.00
70206;BME280;57593;55.896;37.396;2023-02-12T01:03:12;98184.84;;;-1.93;100.00
70206;BME280;57593;55.896;37.396;2023-02-12T01:03:43;98181.44;;;-1.89;100.00
70206;BME280;57593;55.896;37.396;2023-02-12T01:04:13;98228.16;;;-2.04;100.00
70206;BME280;57593;55.896;37.396;2023-02-12T01:04:44;98180.69;;;-2.13;100.00
70206;BME280;57593;55.896;37.396;2023-02-12T01:05:15;98205.34;;;-2.21;100.00
70206;BME280;57593;55.896;37.396;2023-02-12T01:05:46;98184.84;;;-2.18;100.00
70206;BME280;57593;55.896;37.396;2023-02-12T01:06:16;98211.16;;;-2.10;100.00
70206;BME280;57593;55.896;37.396;2023-02-12T01:06:48;98202.63;;;-2.11;100.00
70206;BME280;57593;55.896;37.396;2023-02-12T01:07:19;98191.78;;;-2.13;100.00
70206;BME280;57593;55.896;37.396;2023-02-12T01:07:51;98220.53;;;-2.14;100.00
70206;BME280;57593;55.896;37.396;2023-02-12T01:08:22;98213.72;;;-2.05;100.00
70206;BME280;57593;55.896;37.396;2023-02-12T01:08:54;98198.28;;;-2.15;100.00
70206;BME280;57593;55.896;37.396;2023-02-12T01:09:24;98214.81;;;-2.11;100.00
70206;BME280;57593;55.896;37.396;2023-02-12T01:09:55;98215.28;;;-2.09;100.00
70206;BME280;57593;55.896;37.396;2023-02-12T01:10:26;98208.19;;;-2.23;100.00
70206;BME280;57593;55.896;37.396;2023-02-12T01:10:59;98211.88;;;-2.05;100.00
70206;BME280;57593;55.896;37.396;2023-02-12T01:11:31;98206.94;;;-2.01;100.00
70206;BME280;57593;55.896;37.396;2023-02-12T01:12:02;98219.50;;;-1.89;100.00
70206;BME280;57593;55.896;37.396;2023-02-12T01:12:33;98206.88;;;-1.96;100.00
70206;BME280;57593;55.896;37.396;2023-02-12T01:13:03;98220.47;;;-2.09;100.00
70206;BME280;57593;55.896;37.396;2023-02-12T01:13:34;98215.56;;;-2.11;100.00
70206;BME280;57593;55.896;37.396;2023-02-12T01:14:06;98239.66;;;-2.15;100.00
70206;BME280;57593;55.896;37.396;2023-02-12T01:14:36;98240.31;;;-2.29;100.00
70206;BME280;57593;55.896;37.396;2023-02-12T01:15:07;98227.88;;;-2.27;100.00
70206;BME280;57593;55.896;37.396;2023-02-12T01:15:40;98212.97;;;-2.35;100.00
70206;BME280;57593;55.896;37.396;2023-02-12T01:16:22;98215.50;;;-2.30;100.00
70206;BME280;57593;55.896;37.396;2023-02-12T01:16:53;98232.47;;;-2.19;100.00
70206;BME280;57593;55.896;37.396;2023-02-12T01:17:24;98223.13;;;-2.14;100.00
70206;BME280;57593;55.896;37.396;2023-02-12T01:17:55;98238.19;;;-2.22;100.00
70206;BME280;57593;55.896;37.396;2023-02-12T01:18:25;98247.56;;;-2.31;100.00
70206;BME280;57593;55.896;37.396;2023-02-12T01:18:56;98237.22;;;-2.31;100.00
70206;BME280;57593;55.896;37.396;2023-02-12T01:19:27;98253.94;;;-2.47;100.00
70206;BME280;57593;55.896;37.396;2023-02-12T01:19:58;98222.38;;;-2.49;100.00
70206;BME280;57593;55.896;37.396;2023-02-12T01:20:29;98227.94;;;-2.32;100.00
70206;BME280;57593;55.896;37.396;2023-02-12T01:21:00;98239.84;;;-2.36;100.00
70206;BME280;57593;55.896;37.396;2023-02-12T01:21:33;98261.09;;;-2.39;100.00
70206;BME280;57593;55.896;37.396;2023-02-12T01:22:04;98231.84;;;-2.35;100.00
70206;BME280;57593;55.896;37.396;2023-02-12T01:22:36;98240.59;;;-2.30;100.00
70206;BME280;57593;55.896;37.396;2023-02-12T01:23:07;98275.31;;;-2.37;100.00
70206;BME280;57593;55.896;37.396;2023-02-12T01:23:38;98251.75;;;-2.35;100.00
70206;BME280;57593;55.896;37.396;2023-02-12T01:24:09;98258.97;;;-2.32;100.00
70206;BME280;57593;55.896;37.396;2023-02-12T01:24:40;98254.25;;;-2.25;100.00
70206;BME280;57593;55.896;37.396;2023-02-12T01:25:11;98255.06;;;-2.29;100.00
70206;BME280;57593;55.896;37.396;2023-02-12T01:25:42;98249.84;;;-2.24;100.00
70206;BME280;57593;55.896;37.396;2023-02-12T01:26:13;98271.38;;;-2.29;100.00
70206;BME280;57593;55.896;37.396;2023-02-12T01:26:45;98262.53;;;-2.28;100.00
70206;BME280;57593;55.896;37.396;2023-02-12T01:27:15;98255.91;;;-2.39;100.00
70206;BME280;57593;55.896;37.396;2023-02-12T01:27:47;98256.69;;;-2.39;100.00
70206;BME280;57593;55.896;37.396;2023-02-12T01:28:17;98246.31;;;-2.33;100.00
70206;BME280;57593;55.896;37.396;2023-02-12T01:28:53;98262.81;;;-2.29;100.00
70206;BME280;57593;55.896;37.396;2023-02-12T01:29:24;98265.94;;;-2.32;100.00
70206;BME280;57593;55.896;37.396;2023-02-12T01:29:55;98261.97;;;-2.20;100.00
70206;BME280;57593;55.896;37.396;2023-02-12T01:30:25;98283.59;;;-2.10;100.00
70206;BME280;57593;55.896;37.396;2023-02-12T01:30:56;98278.81;;;-2.22;100.00
70206;BME280;57593;55.896;37.396;2023-02-12T01:31:33;98311.19;;;-2.30;100.00
70206;BME280;57593;55.896;37.396;2023-02-12T01:32:05;98269.25;;;-2.27;100.00
70206;BME280;57593;55.896;37.396;2023-02-12T01:32:36;98263.34;;;-2.27;100.00
70206;BME280;57593;55.896;37.396;2023-02-12T01:33:07;98251.22;;;-2.32;100.00
70206;BME280;57593;55.896;37.396;2023-02-12T01:33:37;98269.00;;;-2.25;100.00
70206;BME280;57593;55.896;37.396;2023-02-12T01:34:09;98281.06;;;-2.15;100.00
70206;BME280;57593;55.896;37.396;2023-02-12T01:34:42;98280.63;;;-2.23;100.00
70206;BME280;57593;55.896;37.396;2023-02-12T01:35:12;98272.81;;;-2.18;100.00
70206;BME280;57593;55.896;37.396;2023-02-12T01:35:44;98277.44;;;-2.14;100.00
70206;BME280;57593;55.896;37.396;2023-02-12T01:36:15;98320.94;;;-2.22;100.00
70206;BME280;57593;55.896;37.396;2023-02-12T01:36:45;98291.31;;;-2.35;100.00
70206;BME280;57593;55.896;37.396;2023-02-12T01:37:16;98279.94;;;-2.33;100.00
70206;BME280;57593;55.896;37.396;2023-02-12T01:37:46;98296.00;;;-2.37;100.00
70206;BME280;57593;55.896;37.396;2023-02-12T01:38:17;98292.50;;;-2.22;100.00
70206;BME280;57593;55.896;37.396;2023-02-12T01:38:49;98277.16;;;-2.13;100.00
70206;BME280;57593;55.896;37.396;2023-02-12T01:39:20;98272.19;;;-2.39;100.00
70206;BME280;57593;55.896;37.396;2023-02-12T01:39:50;98319.59;;;-2.48;100.00
70206;BME280;57593;55.896;37.396;2023-02-12T01:40:21;98283.19;;;-2.52;100.00
70206;BME280;57593;55.896;37.396;2023-02-12T01:40:52;98292.31;;;-2.30;100.00
70206;BME280;57593;55.896;37.396;2023-02-12T01:41:25;98288.47;;;-2.33;100.00
70206;BME280;57593;55.896;37.396;2023-02-12T01:41:57;98298.25;;;-2.30;100.00
70206;BME280;57593;55.896;37.396;2023-02-12T01:42:27;98295.44;;;-2.33;100.00
70206;BME280;57593;55.896;37.396;2023-02-12T01:43:01;98301.34;;;-2.28;100.00
70206;BME280;57593;55.896;37.396;2023-02-12T01:43:33;98313.72;;;-2.25;100.00
70206;BME280;57593;55.896;37.396;2023-02-12T01:44:12;98310.16;;;-2.29;100.00
70206;BME280;57593;55.896;37.396;2023-02-12T01:44:45;98311.88;;;-2.19;100.00
70206;BME280;57593;55.896;37.396;2023-02-12T01:46:07;98310.81;;;-2.47;100.00
70206;BME280;57593;55.896;37.396;2023-02-12T01:46:39;98326.72;;;-2.30;100.00
70206;BME280;57593;55.896;37.396;2023-02-12T01:47:16;98326.28;;;-2.42;100.00
70206;BME280;57593;55.896;37.396;2023-02-12T01:47:47;98326.06;;;-2.51;100.00
70206;BME280;57593;55.896;37.396;2023-02-12T01:48:19;98339.75;;;-2.45;100.00
70206;BME280;57593;55.896;37.396;2023-02-12T01:48:51;98358.19;;;-2.62;100.00
70206;BME280;57593;55.896;37.396;2023-02-12T01:50:06;98360.78;;;-2.62;100.00
70206;BME280;57593;55.896;37.396;2023-02-12T01:50:38;98314.47;;;-2.59;100.00
70206;BME280;57593;55.896;37.396;2023-02-12T01:51:13;98328.38;;;-2.49;100.00
70206;BME280;57593;55.896;37.396;2023-02-12T01:51:49;98323.91;;;-2.33;100.00
70206;BME280;57593;55.896;37.396;2023-02-12T01:52:33;98320.28;;;-2.38;100.00
70206;BME280;57593;55.896;37.396;2023-02-12T01:53:06;98344.69;;;-2.49;100.00
70206;BME280;57593;55.896;37.396;2023-02-12T01:53:42;98331.50;;;-2.47;100.00
70206;BME280;57593;55.896;37.396;2023-02-12T01:54:15;98342.31;;;-2.45;100.00
70206;BME280;57593;55.896;37.396;2023-02-12T01:54:47;98315.72;;;-2.51;100.00
70206;BME280;57593;55.896;37.396;2023-02-12T01:55:20;98333.28;;;-2.48;100.00
70206;BME280;57593;55.896;37.396;2023-02-12T01:55:56;98337.69;;;-2.48;100.00
70206;BME280;57593;55.896;37.396;2023-02-12T01:56:29;98332.03;;;-2.50;100.00
70206;BME280;57593;55.896;37.396;2023-02-12T01:57:03;98345.94;;;-2.46;100.00
70206;BME280;57593;55.896;37.396;2023-02-12T01:57:37;98341.31;;;-2.49;100.00
70206;BME280;57593;55.896;37.396;2023-02-12T01:58:10;98327.66;;;-2.55;100.00
70206;BME280;57593;55.896;37.396;2023-02-12T01:58:42;98343.41;;;-2.51;100.00
70206;BME280;57593;55.896;37.396;2023-02-12T01:59:15;98358.06;;;-2.42;100.00
70206;BME280;57593;55.896;37.396;2023-02-12T01:59:49;98361.53;;;-2.62;100.00
70206;BME280;57593;55.896;37.396;2023-02-12T02:00:23;98362.63;;;-2.68;100.00
70206;BME280;57593;55.896;37.396;2023-02-12T02:00:55;98352.75;;;-2.61;100.00
70206;BME280;57593;55.896;37.396;2023-02-12T02:01:30;98348.88;;;-2.58;100.00
70206;BME280;57593;55.896;37.396;2023-02-12T02:02:04;98357.53;;;-2.39;100.00
70206;BME280;57593;55.896;37.396;2023-02-12T02:02:36;98359.19;;;-2.53;100.00
70206;BME280;57593;55.896;37.396;2023-02-12T02:03:06;98357.63;;;-2.54;100.00
70206;BME280;57593;55.896;37.396;2023-02-12T02:03:38;98347.53;;;-2.50;100.00
70206;BME280;57593;55.896;37.396;2023-02-12T02:04:18;98353.16;;;-2.38;100.00
70206;BME280;57593;55.896;37.396;2023-02-12T02:04:54;98392.75;;;-2.48;100.00
70206;BME280;57593;55.896;37.396;2023-02-12T02:06:05;98390.28;;;-2.68;100.00
70206;BME280;57593;55.896;37.396;2023-02-12T02:06:46;98367.81;;;-2.73;100.00
70206;BME280;57593;55.896;37.396;2023-02-12T02:07:18;98363.19;;;-2.76;100.00
70206;BME280;57593;55.896;37.396;2023-02-12T02:07:49;98357.69;;;-2.64;100.00
70206;BME280;57593;55.896;37.396;2023-02-12T02:08:21;98371.88;;;-2.62;100.00
70206;BME280;57593;55.896;37.396;2023-02-12T02:08:53;98361.84;;;-2.63;100.00
70206;BME280;57593;55.896;37.396;2023-02-12T02:09:25;98369.88;;;-2.65;100.00
70206;BME280;57593;55.896;37.396;2023-02-12T02:09:59;98349.19;;;-2.65;100.00
70206;BME280;57593;55.896;37.396;2023-02-12T02:10:32;98369.88;;;-2.65;100.00
70206;BME280;57593;55.896;37.396;2023-02-12T02:11:03;98371.63;;;-2.60;100.00
70206;BME280;57593;55.896;37.396;2023-02-12T02:11:54;98369.59;;;-2.68;100.00
70206;BME280;57593;55.896;37.396;2023-02-12T02:12:43;98364.78;;;-2.80;100.00
70206;BME280;57593;55.896;37.396;2023-02-12T02:13:32;98373.25;;;-2.75;100.00
70206;BME280;57593;55.896;37.396;2023-02-12T02:14:21;98401.69;;;-2.75;100.00
70206;BME280;57593;55.896;37.396;2023-02-12T02:15:07;98376.06;;;-2.66;100.00
70206;BME280;57593;55.896;37.396;2023-02-12T02:15:40;98388.69;;;-2.59;100.00
70206;BME280;57593;55.896;37.396;2023-02-12T02:16:20;98391.81;;;-2.62;100.00
70206;BME280;57593;55.896;37.396;2023-02-12T02:17:25;98382.44;;;-2.53;100.00
70206;BME280;57593;55.896;37.396;2023-02-12T02:18:03;98363.88;;;-2.60;100.00
70206;BME280;57593;55.896;37.396;2023-02-12T02:18:48;98387.88;;;-2.55;100.00
70206;BME280;57593;55.896;37.396;2023-02-12T02:19:34;98399.28;;;-2.61;100.00
70206;BME280;57593;55.896;37.396;2023-02-12T02:20:55;98364.13;;;-2.62;100.00
70206;BME280;57593;55.896;37.396;2023-02-12T02:23:58;98423.69;;;-2.87;100.00
70206;BME280;57593;55.896;37.396;2023-02-12T02:27:19;98431.13;;;-2.71;100.00
70206;BME280;57593;55.896;37.396;2023-02-12T02:31:37;98431.44;;;-2.82;100.00
70206;BME280;57593;55.896;37.396;2023-02-12T02:32:24;98419.78;;;-2.75;100.00
70206;BME280;57593;55.896;37.396;2023-02-12T02:36:20;98449.16;;;-2.55;100.00
70206;BME280;57593;55.896;37.396;2023-02-12T02:37:13;98430.53;;;-2.57;100.00
70206;BME280;57593;55.896;37.396;2023-02-12T02:38:47;98441.97;;;-2.63;100.00
70206;BME280;57593;55.896;37.396;2023-02-12T02:39:35;98470.69;;;-2.75;100.00
70206;BME280;57593;55.896;37.396;2023-02-12T02:41:48;98460.38;;;-2.75;100.00
70206;BME280;57593;55.896;37.396;2023-02-12T02:43:21;98457.00;;;-2.81;100.00
70206;BME280;57593;55.896;37.396;2023-02-12T02:43:54;98457.28;;;-2.82;100.00
70206;BME280;57593;55.896;37.396;2023-02-12T02:44:34;98460.88;;;-2.68;100.00
70206;BME280;57593;55.896;37.396;2023-02-12T02:45:40;98464.75;;;-2.71;100.00
70206;BME280;57593;55.896;37.396;2023-02-12T02:46:15;98462.69;;;-2.74;100.00
70206;BME280;57593;55.896;37.396;2023-02-12T02:46:49;98469.91;;;-2.71;100.00
70206;BME280;57593;55.896;37.396;2023-02-12T02:47:31;98462.19;;;-2.81;100.00
70206;BME280;57593;55.896;37.396;2023-02-12T02:48:11;98509.50;;;-2.91;100.00
70206;BME280;57593;55.896;37.396;2023-02-12T02:48:51;98466.38;;;-2.95;100.00
70206;BME280;57593;55.896;37.396;2023-02-12T02:49:35;98492.44;;;-2.92;100.00
70206;BME280;57593;55.896;37.396;2023-02-12T02:50:12;98463.72;;;-2.75;100.00
70206;BME280;57593;55.896;37.396;2023-02-12T02:50:48;98477.44;;;-2.84;100.00
70206;BME280;57593;55.896;37.396;2023-02-12T02:51:29;98483.63;;;-2.85;100.00
70206;BME280;57593;55.896;37.396;2023-02-12T02:52:05;98474.34;;;-2.92;100.00
70206;BME280;57593;55.896;37.396;2023-02-12T02:52:53;98495.31;;;-3.03;100.00
70206;BME280;57593;55.896;37.396;2023-02-12T02:53:40;98480.06;;;-2.90;100.00
70206;BME280;57593;55.896;37.396;2023-02-12T02:54:17;98477.94;;;-2.82;100.00
70206;BME280;57593;55.896;37.396;2023-02-12T02:54:52;98512.84;;;-2.90;100.00
70206;BME280;57593;55.896;37.396;2023-02-12T02:55:26;98491.91;;;-2.89;100.00
70206;BME280;57593;55.896;37.396;2023-02-12T02:55:59;98493.97;;;-2.85;100.00
70206;BME280;57593;55.896;37.396;2023-02-12T02:56:34;98502.00;;;-2.87;100.00
70206;BME280;57593;55.896;37.396;2023-02-12T02:57:15;98521.91;;;-2.98;100.00
70206;BME280;57593;55.896;37.396;2023-02-12T02:57:49;98507.47;;;-2.99;100.00
70206;BME280;57593;55.896;37.396;2023-02-12T02:59:10;98497.88;;;-2.98;100.00
70206;BME280;57593;55.896;37.396;2023-02-12T02:59:46;98481.63;;;-2.99;100.00
70206;BME280;57593;55.896;37.396;2023-02-12T03:00:30;98504.34;;;-2.96;100.00
70206;BME280;57593;55.896;37.396;2023-02-12T03:01:08;98545.44;;;-3.10;100.00
70206;BME280;57593;55.896;37.396;2023-02-12T03:01:56;98512.38;;;-3.08;100.00
70206;BME280;57593;55.896;37.396;2023-02-12T03:02:32;98516.00;;;-3.14;100.00
70206;BME280;57593;55.896;37.396;2023-02-12T03:03:13;98513.41;;;-3.14;100.00
70206;BME280;57593;55.896;37.396;2023-02-12T03:03:55;98514.16;;;-3.03;100.00
70206;BME280;57593;55.896;37.396;2023-02-12T03:04:41;98509.53;;;-2.96;100.00
70206;BME280;57593;55.896;37.396;2023-02-12T03:05:48;98537.72;;;-3.30;100.00
70206;BME280;57593;55.896;37.396;2023-02-12T03:07:27;98524.00;;;-3.15;100.00
70206;BME280;57593;55.896;37.396;2023-02-12T03:08:05;98529.66;;;-3.13;100.00
70206;BME280;57593;55.896;37.396;2023-02-12T03:08:45;98537.41;;;-3.13;100.00
70206;BME280;57593;55.896;37.396;2023-02-12T03:09:53;98535.63;;;-3.23;100.00
70206;BME280;57593;55.896;37.396;2023-02-12T03:10:30;98539.50;;;-3.15;100.00
70206;BME280;57593;55.896;37.396;2023-02-12T03:11:11;98549.31;;;-3.12;100.00
70206;BME280;57593;55.896;37.396;2023-02-12T03:11:44;98535.88;;;-3.04;100.00
70206;BME280;57593;55.896;37.396;2023-02-12T03:12:23;98538.47;;;-2.99;100.00
70206;BME280;57593;55.896;37.396;2023-02-12T03:13:25;98562.50;;;-3.24;100.00
70206;BME280;57593;55.896;37.396;2023-02-12T03:14:08;98535.88;;;-3.30;100.00
70206;BME280;57593;55.896;37.396;2023-02-12T03:14:49;98532.03;;;-3.27;100.00
70206;BME280;57593;55.896;37.396;2023-02-12T03:16:07;98542.34;;;-3.17;100.00